Time;durP1;ratioP1;P1;durP2;ratioP2;P2;SDS_P1;SDS_P2;PMS_P1;PMS_P2;Temp;Humidity;BMP_temperature;BMP_pressure;BME280_temperature;BME280_humidity;BME280_pressure;Samples;Min_cycle;Max_cycle;Signal;HPM_P1;HPM_P2
2021/10/16 00:03:43;;;;;;;5.63;3.50;;;;;;;;;;10432127;28;20025;-86
2021/10/16 00:08:44;;;;;;;6.13;3.55;;;;;;;;;;10437921;28;20474;-86
2021/10/16 00:13:45;;;;;;;7.97;4.20;;;;;;;;;;10415574;28;20120;-86
2021/10/16 00:18:46;;;;;;;5.55;3.45;;;;;;;;;;10413159;28;20476;-85
2021/10/16 00:23:47;;;;;;;7.72;3.63;;;;;;;;;;10411580;28;20033;-85
2021/10/16 00:28:48;;;;;;;5.72;3.70;;;;;;;;;;10411782;28;20391;-86
2021/10/16 00:33:49;;;;;;;4.78;3.10;;;;;;;;;;10410590;28;20036;-86
2021/10/16 00:38:50;;;;;;;7.43;3.60;;;;;;;;;;10411318;28;20029;-86
2021/10/16 00:44:10;;;;;;;5.55;3.70;;;;;;;;;;10415680;28;20097;-86
2021/10/16 00:49:11;;;;;;;5.55;3.70;;;;;;;;;;10431988;28;20092;-86
2021/10/16 00:54:12;;;;;;;5.53;3.47;;;;;;;;;;10417508;28;20021;-86
2021/10/16 00:59:14;;;;;;;6.88;3.63;;;;;;;;;;10408759;28;20061;-85
2021/10/16 01:04:15;;;;;;;5.97;3.90;;;;;;;;;;10407755;28;20025;-85
2021/10/16 01:09:16;;;;;;;4.28;2.95;;;;;;;;;;10407764;28;20040;-86
2021/10/16 01:14:17;;;;;;;7.13;3.80;;;;;;;;;;10407232;28;20407;-86
2021/10/16 01:19:21;;;;;;;5.00;3.08;;;;;;;;;;10414759;28;20029;-86
2021/10/16 01:24:22;;;;;;;5.30;3.58;;;;;;;;;;10447604;28;20034;-86
2021/10/16 01:29:24;;;;;;;6.07;3.30;;;;;;;;;;10453330;28;20581;-85
2021/10/16 01:34:25;;;;;;;7.20;3.75;;;;;;;;;;10406937;28;20036;-86
2021/10/16 01:39:29;;;;;;;5.97;3.40;;;;;;;;;;10409294;28;20120;-85
2021/10/16 01:44:30;;;;;;;5.38;3.65;;;;;;;;;;10425215;28;20360;-85
2021/10/16 01:49:31;;;;;;;7.45;4.75;;;;;;;;;;10406170;28;20035;-85
2021/10/16 01:54:32;;;;;;;9.93;6.35;;;;;;;;;;10408317;28;20018;-86
2021/10/16 01:59:34;;;;;;;9.80;6.43;;;;;;;;;;10410717;28;20053;-86
2021/10/16 02:04:35;;;;;;;9.82;6.85;;;;;;;;;;10430851;28;20038;-87
2021/10/16 02:09:36;;;;;;;9.82;7.13;;;;;;;;;;10429815;28;20034;-85
2021/10/16 02:14:37;;;;;;;11.77;7.75;;;;;;;;;;10423062;28;20141;-86
2021/10/16 02:19:38;;;;;;;10.10;7.15;;;;;;;;;;10424493;28;20033;-85
2021/10/16 02:24:39;;;;;;;8.65;6.38;;;;;;;;;;10437106;28;20033;-86
2021/10/16 02:29:40;;;;;;;;;;;;;;;;;;10412070;28;20435;-86
2021/10/16 02:34:41;;;;;;;8.95;6.50;;;;;;;;;;10430149;28;19893;-84
2021/10/16 02:39:41;;;;;;;;;;;;;;;;;;10438013;28;20053;-85
2021/10/16 02:44:42;;;;;;;8.93;6.05;;;;;;;;;;10440695;28;19940;-87
2021/10/16 02:49:43;;;;;;;8.57;5.68;;;;;;;;;;10419481;28;20049;-86
2021/10/16 02:54:44;;;;;;;;;;;;;;;;;;10420177;28;20027;-86
2021/10/16 02:59:45;;;;;;;8.32;5.25;;;;;;;;;;10417966;28;19916;-86
2021/10/16 03:04:46;;;;;;;8.00;5.50;;;;;;;;;;10415441;28;20107;-86
2021/10/16 03:09:47;;;;;;;7.22;4.82;;;;;;;;;;10433470;28;20091;-86
2021/10/16 03:14:48;;;;;;;8.98;5.55;;;;;;;;;;10415044;28;20105;-85
2021/10/16 03:19:49;;;;;;;7.07;5.15;;;;;;;;;;10429837;28;20045;-86
2021/10/16 03:24:50;;;;;;;10.50;6.93;;;;;;;;;;10413270;28;20041;-84
2021/10/16 03:29:51;;;;;;;12.60;9.82;;;;;;;;;;10412335;28;20029;-85
2021/10/16 03:34:52;;;;;;;15.63;11.90;;;;;;;;;;10412158;28;20403;-85
2021/10/16 03:39:53;;;;;;;16.33;12.93;;;;;;;;;;10429877;28;20029;-85
2021/10/16 03:44:53;;;;;;;15.90;12.25;;;;;;;;;;10412228;28;20510;-84
2021/10/16 03:49:54;;;;;;;15.57;11.65;;;;;;;;;;10413174;28;20018;-85
2021/10/16 03:54:55;;;;;;;15.13;11.05;;;;;;;;;;10413929;28;20021;-85
2021/10/16 03:59:57;;;;;;;13.38;10.05;;;;;;;;;;10412786;28;20400;-86
2021/10/16 04:04:58;;;;;;;12.45;10.00;;;;;;;;;;10413284;28;20025;-86
2021/10/16 04:09:59;;;;;;;12.60;8.95;;;;;;;;;;10413508;28;20034;-86
2021/10/16 04:15:00;;;;;;;11.43;8.10;;;;;;;;;;10434556;28;20025;-86
2021/10/16 04:20:01;;;;;;;10.70;7.63;;;;;;;;;;10411158;28;20068;-86
2021/10/16 04:25:01;;;;;;;9.68;7.50;;;;;;;;;;10412238;28;20025;-86
2021/10/16 04:30:02;;;;;;;;;;;;;;;;;;10410490;28;20529;-86
2021/10/16 04:35:07;;;;;;;10.32;6.53;;;;;;;;;;10409201;28;19955;-86
2021/10/16 04:40:16;;;;;;;9.18;6.35;;;;;;;;;;10427029;28;20033;-86
2021/10/16 04:45:18;;;;;;;8.23;6.28;;;;;;;;;;10426991;28;20036;-86
2021/10/16 04:50:19;;;;;;;8.00;5.20;;;;;;;;;;10426339;28;20034;-86
2021/10/16 04:55:23;;;;;;;7.07;5.07;;;;;;;;;;10409184;28;20484;-85
2021/10/16 05:00:24;;;;;;;7.75;5.10;;;;;;;;;;10409564;28;20088;-85
2021/10/16 05:05:26;;;;;;;6.82;5.00;;;;;;;;;;10417134;28;20029;-86
2021/10/16 05:10:27;;;;;;;8.80;4.97;;;;;;;;;;10409401;28;20398;-85
2021/10/16 05:15:28;;;;;;;;;;;;;;;;;;10405424;28;20112;-86
2021/10/16 05:20:29;;;;;;;6.35;4.22;;;;;;;;;;10423922;28;19917;-84
2021/10/16 05:25:30;;;;;;;4.55;3.75;;;;;;;;;;10434721;28;20057;-84
2021/10/16 05:30:31;;;;;;;;;;;;;;;;;;10446946;28;20025;-81
2021/10/16 05:35:32;;;;;;;4.68;3.25;;;;;;;;;;10435795;28;19909;-83
2021/10/16 05:40:33;;;;;;;4.90;3.55;;;;;;;;;;10427937;28;20144;-84
2021/10/16 05:45:34;;;;;;;6.45;4.55;;;;;;;;;;10418024;28;20033;-83
2021/10/16 05:50:36;;;;;;;5.95;3.60;;;;;;;;;;10417756;28;20026;-83
2021/10/16 05:55:38;;;;;;;4.43;3.22;;;;;;;;;;10434469;28;20488;-83
2021/10/16 06:00:39;;;;;;;7.00;3.65;;;;;;;;;;10413907;28;20086;-83
2021/10/16 06:05:40;;;;;;;6.53;3.92;;;;;;;;;;10414786;28;20029;-83
2021/10/16 06:10:41;;;;;;;4.35;3.13;;;;;;;;;;10415271;28;20018;-83
2021/10/16 06:15:42;;;;;;;8.23;3.92;;;;;;;;;;10415818;28;20455;-83
2021/10/16 06:20:43;;;;;;;5.82;3.60;;;;;;;;;;10428579;28;20105;-84
2021/10/16 06:25:44;;;;;;;6.65;4.10;;;;;;;;;;10417384;28;20080;-83
2021/10/16 06:30:45;;;;;;;;;;;;;;;;;;10414904;28;20045;-83
2021/10/16 06:35:46;;;;;;;4.85;3.22;;;;;;;;;;10417063;28;19909;-84
2021/10/16 06:40:47;;;;;;;5.43;3.85;;;;;;;;;;10432594;28;20022;-81
2021/10/16 06:45:48;;;;;;;6.35;4.03;;;;;;;;;;10432296;28;20026;-83
2021/10/16 06:50:49;;;;;;;5.78;3.75;;;;;;;;;;10414532;28;20034;-83
2021/10/16 06:55:50;;;;;;;5.28;3.33;;;;;;;;;;10422186;28;20017;-83
2021/10/16 07:00:51;;;;;;;5.18;3.38;;;;;;;;;;10421209;28;20029;-83
2021/10/16 07:05:52;;;;;;;6.07;3.72;;;;;;;;;;10418923;28;20024;-86
2021/10/16 07:10:53;;;;;;;8.82;4.18;;;;;;;;;;10416524;28;20025;-86
2021/10/16 07:15:54;;;;;;;9.55;5.15;;;;;;;;;;10433763;28;20026;-86
2021/10/16 07:20:59;;;;;;;6.93;4.40;;;;;;;;;;10412944;28;20034;-85
2021/10/16 07:26:06;;;;;;;10.70;5.40;;;;;;;;;;10385535;28;20100;-86
2021/10/16 07:31:29;;;;;;;10.10;5.35;;;;;;;;;;10413601;28;20473;-86
2021/10/16 07:36:39;;;;;;;9.52;5.15;;;;;;;;;;10409757;28;20083;-86
2021/10/16 07:41:47;;;;;;;10.00;5.65;;;;;;;;;;10410745;28;20116;-85
2021/10/16 07:46:48;;;;;;;11.95;5.68;;;;;;;;;;10408598;28;20033;-85
2021/10/16 07:51:57;;;;;;;;;;;;;;;;;;10419662;28;20049;-86
2021/10/16 07:57:01;;;;;;;12.20;6.47;;;;;;;;;;10416089;28;19905;-86
2021/10/16 08:02:26;;;;;;;12.10;5.97;;;;;;;;;;10442612;28;20060;-84
2021/10/16 08:07:26;;;;;;;12.63;6.85;;;;;;;;;;10431128;28;20064;-85
2021/10/16 08:12:27;;;;;;;11.52;6.38;;;;;;;;;;10408663;28;20052;-83
2021/10/16 08:17:30;;;;;;;11.30;6.70;;;;;;;;;;10415156;28;20037;-85
2021/10/16 08:22:43;;;;;;;10.50;6.75;;;;;;;;;;10431959;28;20025;-84
2021/10/16 08:27:47;;;;;;;10.10;6.72;;;;;;;;;;10449098;28;20021;-84
2021/10/16 08:32:48;;;;;;;11.10;6.53;;;;;;;;;;10435041;28;20061;-85
2021/10/16 08:37:53;;;;;;;11.93;6.88;;;;;;;;;;10403117;28;20033;-85
2021/10/16 08:42:56;;;;;;;8.80;5.47;;;;;;;;;;10414600;28;20472;-87
2021/10/16 08:47:57;;;;;;;9.32;6.30;;;;;;;;;;10418659;28;20025;-84
2021/10/16 08:52:59;;;;;;;11.13;6.13;;;;;;;;;;10413989;28;20033;-84
2021/10/16 08:58:00;;;;;;;9.18;5.78;;;;;;;;;;10396802;28;20087;-84
2021/10/16 09:03:18;;;;;;;10.85;6.50;;;;;;;;;;10437041;28;20031;-85
2021/10/16 09:08:33;;;;;;;8.95;6.28;;;;;;;;;;10412758;28;20031;-85
2021/10/16 09:13:43;;;;;;;10.35;5.72;;;;;;;;;;10413213;28;20508;-86
2021/10/16 09:18:58;;;;;;;7.77;5.43;;;;;;;;;;10412614;28;20152;-87
2021/10/16 09:24:08;;;;;;;9.98;5.70;;;;;;;;;;10409993;28;20472;-87
2021/10/16 09:29:15;;;;;;;11.13;7.07;;;;;;;;;;10408207;28;20060;-87
2021/10/16 09:34:38;;;;;;;7.75;5.55;;;;;;;;;;10408435;28;20045;-86
2021/10/16 09:39:41;;;;;;;9.10;5.82;;;;;;;;;;10378785;28;20053;-87
2021/10/16 09:44:56;;;;;;;8.88;6.10;;;;;;;;;;10408120;28;20040;-86
2021/10/16 09:50:02;;;;;;;10.73;5.68;;;;;;;;;;10436893;28;20037;-87
2021/10/16 09:55:03;;;;;;;9.73;5.60;;;;;;;;;;10402935;28;20384;-87
2021/10/16 10:00:08;;;;;;;9.90;5.70;;;;;;;;;;10401313;28;20391;-86
2021/10/16 10:10:54;;;;;;;9.40;5.72;;;;;;;;;;10419132;28;20030;-87
2021/10/16 10:16:06;;;;;;;9.10;5.30;;;;;;;;;;10420153;28;20028;-87
2021/10/16 10:21:35;;;;;;;12.25;6.38;;;;;;;;;;10415396;28;20048;-86
2021/10/16 10:37:54;;;;;;;8.75;5.10;;;;;;;;;;10434500;28;20041;-83
2021/10/16 10:49:14;;;;;;;10.40;6.05;;;;;;;;;;10438868;28;20029;-84
2021/10/16 10:54:37;;;;;;;10.82;6.03;;;;;;;;;;10438916;28;20052;-84
2021/10/16 11:00:06;;;;;;;10.15;4.90;;;;;;;;;;10427354;28;20026;-85
2021/10/16 11:05:38;;;;;;;9.50;5.25;;;;;;;;;;10412455;28;20108;-87
2021/10/16 11:10:39;;;;;;;9.13;5.20;;;;;;;;;;10433583;28;20064;-86
2021/10/16 11:16:21;;;;;;;9.50;4.82;;;;;;;;;;10460265;28;20033;-86
2021/10/16 11:21:30;;;;;;;8.52;4.47;;;;;;;;;;10440905;28;20037;-87
2021/10/16 11:26:31;;;;;;;7.03;4.28;;;;;;;;;;10425800;28;20095;-90
2021/10/16 11:37:43;;;;;;;8.32;4.13;;;;;;;;;;10355047;28;20029;-88
2021/10/16 11:54:17;;;;;;;8.95;3.35;;;;;;;;;;10432585;28;20029;-85
2021/10/16 11:59:20;;;;;;;8.07;2.90;;;;;;;;;;10432778;28;20032;-83
2021/10/16 12:04:20;;;;;;;6.78;2.30;;;;;;;;;;10429491;28;20022;-81
2021/10/16 12:09:21;;;;;;;6.75;3.17;;;;;;;;;;10427968;28;20108;-80
2021/10/16 12:14:22;;;;;;;5.78;2.70;;;;;;;;;;10409847;28;20467;-79
2021/10/16 12:19:25;;;;;;;6.63;2.83;;;;;;;;;;10408992;28;20033;-79
2021/10/16 12:24:30;;;;;;;7.38;3.10;;;;;;;;;;10411376;28;20471;-82
2021/10/16 12:29:32;;;;;;;5.65;3.03;;;;;;;;;;10412685;28;20056;-83
2021/10/16 12:34:34;;;;;;;5.95;3.15;;;;;;;;;;10431645;28;20085;-84
2021/10/16 12:39:42;;;;;;;5.75;2.63;;;;;;;;;;10427374;28;20039;-83
2021/10/16 12:44:43;;;;;;;6.70;2.90;;;;;;;;;;10427807;28;20537;-84
2021/10/16 12:49:49;;;;;;;5.72;2.72;;;;;;;;;;10411211;28;20029;-84
2021/10/16 12:54:50;;;;;;;6.10;3.10;;;;;;;;;;10411004;28;20022;-84
2021/10/16 12:59:51;;;;;;;5.50;2.85;;;;;;;;;;10427754;28;20025;-83
2021/10/16 13:04:53;;;;;;;6.65;3.55;;;;;;;;;;10425602;28;20057;-83
2021/10/16 13:09:54;;;;;;;7.22;3.88;;;;;;;;;;10427418;28;20029;-83
2021/10/16 13:14:55;;;;;;;7.75;4.55;;;;;;;;;;10410701;28;20483;-83
2021/10/16 13:19:57;;;;;;;11.98;6.40;;;;;;;;;;10409481;28;20048;-83
2021/10/16 13:24:59;;;;;;;9.63;4.97;;;;;;;;;;10425840;28;20053;-82
2021/10/16 13:30:00;;;;;;;11.27;6.20;;;;;;;;;;10407878;28;20037;-83
2021/10/16 13:35:01;;;;;;;11.65;5.43;;;;;;;;;;10426063;28;20487;-84
2021/10/16 13:40:05;;;;;;;8.65;3.97;;;;;;;;;;10425456;28;20032;-84
2021/10/16 13:45:07;;;;;;;5.55;3.47;;;;;;;;;;10408622;28;20493;-84
2021/10/16 13:50:09;;;;;;;10.73;5.07;;;;;;;;;;10411419;28;20067;-84
2021/10/16 13:55:10;;;;;;;9.38;4.05;;;;;;;;;;10407440;28;20049;-84
2021/10/16 14:00:11;;;;;;;11.35;5.15;;;;;;;;;;10421741;28;20037;-82
2021/10/16 14:05:12;;;;;;;6.40;3.53;;;;;;;;;;10434389;28;20128;-81
2021/10/16 14:10:13;;;;;;;8.95;4.32;;;;;;;;;;10434194;28;20037;-82
2021/10/16 14:15:14;;;;;;;8.95;4.30;;;;;;;;;;10409077;28;20032;-82
2021/10/16 14:20:15;;;;;;;6.07;3.63;;;;;;;;;;10426623;28;20037;-82
2021/10/16 14:25:16;;;;;;;6.00;3.40;;;;;;;;;;10408144;28;20021;-82
2021/10/16 14:30:18;;;;;;;7.53;3.53;;;;;;;;;;10412937;28;20021;-82
2021/10/16 14:35:19;;;;;;;6.75;3.38;;;;;;;;;;10424366;28;20033;-83
2021/10/16 14:40:20;;;;;;;6.10;3.35;;;;;;;;;;10434788;28;20053;-81
2021/10/16 14:45:21;;;;;;;5.97;3.40;;;;;;;;;;10430080;28;20041;-82
2021/10/16 14:50:22;;;;;;;5.35;2.90;;;;;;;;;;10408533;28;20029;-81
2021/10/16 14:55:24;;;;;;;6.05;2.90;;;;;;;;;;10406753;28;20435;-81
2021/10/16 15:00:25;;;;;;;5.60;3.35;;;;;;;;;;10427880;28;20026;-81
2021/10/16 15:05:26;;;;;;;6.53;3.10;;;;;;;;;;10407162;28;20030;-81
2021/10/16 15:10:27;;;;;;;7.47;3.40;;;;;;;;;;10406876;28;20017;-81
2021/10/16 15:15:28;;;;;;;5.40;3.03;;;;;;;;;;10412238;28;20029;-81
2021/10/16 15:20:29;;;;;;;6.32;2.90;;;;;;;;;;10415241;28;20029;-82
2021/10/16 15:25:30;;;;;;;5.18;2.50;;;;;;;;;;10415145;28;20037;-82
2021/10/16 15:30:32;;;;;;;6.75;3.33;;;;;;;;;;10421903;28;20092;-82
2021/10/16 15:35:32;;;;;;;5.15;2.72;;;;;;;;;;10416294;28;20032;-82
2021/10/16 15:40:33;;;;;;;5.63;3.58;;;;;;;;;;10416072;28;20024;-83
2021/10/16 15:45:34;;;;;;;5.00;2.83;;;;;;;;;;10414416;28;20021;-82
2021/10/16 15:50:35;;;;;;;4.47;2.55;;;;;;;;;;10413748;28;20029;-83
2021/10/16 15:55:36;;;;;;;5.43;2.70;;;;;;;;;;10415785;28;20052;-83
2021/10/16 16:00:37;;;;;;;5.25;3.20;;;;;;;;;;10419702;28;20072;-83
2021/10/16 16:05:38;;;;;;;9.25;5.00;;;;;;;;;;10415108;28;20034;-83
2021/10/16 16:10:39;;;;;;;7.07;4.07;;;;;;;;;;10417217;28;20049;-83
2021/10/16 16:15:40;;;;;;;9.93;5.55;;;;;;;;;;10414470;28;20129;-83
2021/10/16 16:20:41;;;;;;;5.50;3.35;;;;;;;;;;10419586;28;20033;-83
2021/10/16 16:25:42;;;;;;;8.43;5.28;;;;;;;;;;10456180;28;20089;-83
2021/10/16 16:30:44;;;;;;;7.13;4.30;;;;;;;;;;10440322;28;20042;-82
2021/10/16 16:35:45;;;;;;;7.18;4.55;;;;;;;;;;10432644;28;20025;-82
2021/10/16 16:40:46;;;;;;;8.07;4.60;;;;;;;;;;10433253;28;20029;-82
2021/10/16 16:45:47;;;;;;;7.60;4.20;;;;;;;;;;10428828;28;20080;-82
2021/10/16 16:50:48;;;;;;;7.07;4.35;;;;;;;;;;10425793;28;20060;-82
2021/10/16 16:55:49;;;;;;;5.82;3.85;;;;;;;;;;10454292;28;20025;-82
2021/10/16 17:00:50;;;;;;;11.15;6.45;;;;;;;;;;10440108;28;20038;-84
2021/10/16 17:05:51;;;;;;;7.63;4.50;;;;;;;;;;10418238;28;20037;-82
2021/10/16 17:10:53;;;;;;;9.30;5.93;;;;;;;;;;10416547;28;20029;-81
2021/10/16 17:15:54;;;;;;;9.07;5.50;;;;;;;;;;10432475;28;20021;-81
2021/10/16 17:20:55;;;;;;;9.23;6.97;;;;;;;;;;10424792;28;20029;-81
2021/10/16 17:25:56;;;;;;;9.95;7.30;;;;;;;;;;10405080;28;20025;-81
2021/10/16 17:30:57;;;;;;;16.40;9.70;;;;;;;;;;10406220;28;20525;-80
2021/10/16 17:35:59;;;;;;;13.43;9.77;;;;;;;;;;10405612;28;20025;-81
2021/10/16 17:41:00;;;;;;;15.18;11.52;;;;;;;;;;10422643;28;20029;-81
2021/10/16 17:46:01;;;;;;;16.83;12.63;;;;;;;;;;10403609;28;20112;-81
2021/10/16 17:51:02;;;;;;;15.45;11.88;;;;;;;;;;10403720;28;20025;-81
2021/10/16 17:56:03;;;;;;;14.98;11.70;;;;;;;;;;10403627;28;20079;-81
2021/10/16 18:01:04;;;;;;;14.20;11.48;;;;;;;;;;10404442;28;20029;-82
2021/10/16 18:06:05;;;;;;;16.45;11.23;;;;;;;;;;10422635;28;20053;-81
2021/10/16 18:11:07;;;;;;;15.00;11.20;;;;;;;;;;10403261;28;20048;-82
2021/10/16 18:16:08;;;;;;;14.18;10.73;;;;;;;;;;10401504;28;20026;-81
2021/10/16 18:21:09;;;;;;;13.32;10.50;;;;;;;;;;10401434;28;20073;-82
2021/10/16 18:26:13;;;;;;;12.57;9.85;;;;;;;;;;10422004;28;20041;-81
2021/10/16 18:31:14;;;;;;;14.75;10.52;;;;;;;;;;10405146;28;20026;-82
2021/10/16 18:36:15;;;;;;;13.75;10.27;;;;;;;;;;10405360;28;20032;-82
2021/10/16 18:41:16;;;;;;;16.15;11.05;;;;;;;;;;10434507;28;20029;-82
2021/10/16 18:46:17;;;;;;;12.73;9.60;;;;;;;;;;10405038;28;20034;-82
2021/10/16 18:51:18;;;;;;;12.55;9.80;;;;;;;;;;10425058;28;20029;-81
2021/10/16 18:56:19;;;;;;;13.55;9.95;;;;;;;;;;10410372;28;20053;-82
2021/10/16 19:01:20;;;;;;;12.85;10.18;;;;;;;;;;10411515;28;20504;-82
2021/10/16 19:06:21;;;;;;;15.90;11.38;;;;;;;;;;10429235;28;20082;-82
2021/10/16 19:11:22;;;;;;;11.73;10.02;;;;;;;;;;10429020;28;20402;-82
2021/10/16 19:16:23;;;;;;;13.68;10.40;;;;;;;;;;10409995;28;20082;-81
2021/10/16 19:21:25;;;;;;;13.45;10.32;;;;;;;;;;10410645;28;20069;-82
2021/10/16 19:26:26;;;;;;;11.57;9.02;;;;;;;;;;10410290;28;20030;-82
2021/10/16 19:31:27;;;;;;;11.02;8.73;;;;;;;;;;10411953;28;20030;-82
2021/10/16 19:36:28;;;;;;;11.90;8.90;;;;;;;;;;10412180;28;20026;-81
2021/10/16 19:41:29;;;;;;;11.60;8.98;;;;;;;;;;10420103;28;20032;-80
2021/10/16 19:46:30;;;;;;;10.10;8.30;;;;;;;;;;10439176;28;20482;-81
2021/10/16 19:51:31;;;;;;;12.10;8.85;;;;;;;;;;10453083;28;20474;-80
2021/10/16 19:56:32;;;;;;;13.60;10.35;;;;;;;;;;10414477;28;20040;-80
2021/10/16 20:01:33;;;;;;;11.52;8.40;;;;;;;;;;10412777;28;20022;-81
2021/10/16 20:06:34;;;;;;;10.63;8.52;;;;;;;;;;10419201;28;20036;-81
2021/10/16 20:11:35;;;;;;;12.27;9.18;;;;;;;;;;10412829;28;20083;-82
2021/10/16 20:16:35;;;;;;;12.35;9.40;;;;;;;;;;10427741;28;20029;-82
2021/10/16 20:21:36;;;;;;;11.55;9.90;;;;;;;;;;10425351;28;20033;-81
2021/10/16 20:26:39;;;;;;;13.60;10.52;;;;;;;;;;10408126;28;20029;-82
2021/10/16 20:31:40;;;;;;;13.00;10.23;;;;;;;;;;10424282;28;20029;-81
2021/10/16 20:36:41;;;;;;;12.68;9.93;;;;;;;;;;10424635;28;20025;-80
2021/10/16 20:41:42;;;;;;;12.05;9.77;;;;;;;;;;10406170;28;20480;-81
2021/10/16 20:46:43;;;;;;;11.35;9.40;;;;;;;;;;10425791;28;20028;-82
2021/10/16 20:51:44;;;;;;;10.90;9.50;;;;;;;;;;10419346;28;20033;-80
2021/10/16 20:56:45;;;;;;;13.05;9.45;;;;;;;;;;10449143;28;20030;-79
2021/10/16 21:01:46;;;;;;;11.48;8.82;;;;;;;;;;10433655;28;20555;-81
2021/10/16 21:06:47;;;;;;;10.88;8.88;;;;;;;;;;10406873;28;20026;-81
2021/10/16 21:11:48;;;;;;;10.77;9.10;;;;;;;;;;10406492;28;20022;-80
2021/10/16 21:16:53;;;;;;;12.60;9.15;;;;;;;;;;10407008;28;20030;-81
2021/10/16 21:21:54;;;;;;;11.65;9.23;;;;;;;;;;10405235;28;20120;-81
2021/10/16 21:26:55;;;;;;;12.18;9.05;;;;;;;;;;10405933;28;20064;-81
2021/10/16 21:31:56;;;;;;;12.00;9.35;;;;;;;;;;10405712;28;20480;-81
2021/10/16 21:36:57;;;;;;;10.90;9.40;;;;;;;;;;10406538;28;20101;-81
2021/10/16 21:41:58;;;;;;;12.88;9.95;;;;;;;;;;10407182;28;20092;-82
2021/10/16 21:46:59;;;;;;;13.35;10.13;;;;;;;;;;10405527;28;20036;-81
2021/10/16 21:52:01;;;;;;;11.35;9.43;;;;;;;;;;10406279;28;20487;-81
2021/10/16 21:57:02;;;;;;;12.00;10.23;;;;;;;;;;10404687;28;20544;-82
2021/10/16 22:02:03;;;;;;;13.00;10.02;;;;;;;;;;10423437;28;20026;-82
2021/10/16 22:07:04;;;;;;;12.70;9.98;;;;;;;;;;10404013;28;20472;-81
2021/10/16 22:12:05;;;;;;;;;;;;;;;;;;10405224;28;20124;-81
2021/10/16 22:17:06;;;;;;;11.20;8.60;;;;;;;;;;10404263;28;19905;-81
2021/10/16 22:22:07;;;;;;;10.55;8.55;;;;;;;;;;10424530;28;20041;-81
2021/10/16 22:27:08;;;;;;;13.45;9.60;;;;;;;;;;10411448;28;20033;-82
2021/10/16 22:32:08;;;;;;;11.10;9.32;;;;;;;;;;10411652;28;20025;-81
2021/10/16 22:37:09;;;;;;;12.13;9.35;;;;;;;;;;10428061;28;20021;-80
2021/10/16 22:42:12;;;;;;;11.80;9.52;;;;;;;;;;10434605;28;20140;-81
2021/10/16 22:47:13;;;;;;;12.73;9.20;;;;;;;;;;10431123;28;20029;-84
2021/10/16 22:52:14;;;;;;;10.95;9.20;;;;;;;;;;10435734;28;20045;-83
2021/10/16 22:57:21;;;;;;;13.13;9.95;;;;;;;;;;10416819;28;20021;-84
2021/10/16 23:02:22;;;;;;;9.73;7.95;;;;;;;;;;10422262;28;20087;-83
2021/10/16 23:07:23;;;;;;;12.98;9.40;;;;;;;;;;10425504;28;20021;-83
2021/10/16 23:12:24;;;;;;;10.75;9.30;;;;;;;;;;10411751;28;20052;-80
2021/10/16 23:17:25;;;;;;;11.35;8.80;;;;;;;;;;10481643;22;20061;-85
2021/10/16 23:22:26;;;;;;;10.52;8.35;;;;;;;;;;10462487;28;20044;-85
2021/10/16 23:27:27;;;;;;;10.82;8.35;;;;;;;;;;10465108;28;20079;-84
2021/10/16 23:32:28;;;;;;;;;;;;;;;;;;10461885;28;20059;-84
2021/10/16 23:37:32;;;;;;;9.60;7.78;;;;;;;;;;10461915;28;20374;-84
2021/10/16 23:42:38;;;;;;;10.70;8.10;;;;;;;;;;10462321;28;20056;-86
2021/10/16 23:47:40;;;;;;;10.07;8.43;;;;;;;;;;10462200;28;20037;-85
2021/10/16 23:52:41;;;;;;;9.75;7.88;;;;;;;;;;10461156;28;20062;-85
2021/10/16 23:57:42;;;;;;;8.63;7.30;;;;;;;;;;10460668;28;20036;-85
